Time;durP1;ratioP1;P1;durP2;ratioP2;P2;SDS_P1;SDS_P2;PMS_P1;PMS_P2;Temp;Humidity;BMP_temperature;BMP_pressure;BME280_temperature;BME280_humidity;BME280_pressure;Samples;Min_cycle;Max_cycle;Signal;HPM_P1;HPM_P2
2021/10/16 05:37:45;;;;;;;11.17;10.17;;;7.70;99.90;;;;;;4914894;29;20673;-96
2021/10/16 05:40:27;;;;;;;11.10;10.10;;;7.80;99.90;;;;;;4901131;29;20647;-96
2021/10/16 05:42:59;;;;;;;11.27;10.30;;;7.90;99.90;;;;;;4918016;29;20621;-96
2021/10/16 06:06:43;;;;;;;10.90;10.10;;;8.10;99.90;;;;;;5464057;23;20673;-95
2021/10/16 06:09:22;;;;;;;10.67;9.87;;;8.10;99.90;;;;;;4914051;29;20664;-96
2021/10/16 06:11:57;;;;;;;10.77;9.90;;;8.20;99.90;;;;;;4934204;29;20672;-96
2021/10/16 06:14:26;;;;;;;11.80;10.90;;;8.20;99.90;;;;;;4896603;29;20700;-96
2021/10/16 06:16:54;;;;;;;11.10;10.23;;;8.30;99.90;;;;;;4928330;29;20628;-96
2021/10/16 06:19:28;;;;;;;11.20;10.23;;;8.30;99.90;;;;;;4925562;29;20664;-95
2021/10/16 08:47:10;;;;;;;11.40;10.20;;;10.80;99.90;;;;;;4910828;29;20658;-96
2021/10/16 08:49:51;;;;;;;11.40;10.20;;;10.70;99.90;;;;;;4923101;29;20613;-96
2021/10/16 08:52:23;;;;;;;12.20;11.00;;;10.80;99.90;;;;;;4916990;29;20639;-96
2021/10/16 08:55:17;;;;;;;12.63;11.07;;;10.90;99.90;;;;;;4903727;29;20643;-96
2021/10/16 08:58:29;;;;;;;11.93;10.83;;;11.00;99.90;;;;;;4907633;29;20670;-96
2021/10/16 09:01:20;;;;;;;13.80;12.40;;;10.90;99.90;;;;;;4902473;29;20664;-96
2021/10/16 09:04:25;;;;;;;12.10;10.77;;;11.00;99.90;;;;;;4902377;29;20641;-96
2021/10/16 09:10:40;;;;;;;12.33;11.13;;;11.00;99.90;;;;;;4904146;29;20616;-96
2021/10/16 09:20:16;;;;;;;14.03;11.73;;;11.50;99.90;;;;;;4906900;29;20638;-96
2021/10/16 09:32:16;;;;;;;12.87;11.77;;;11.80;99.90;;;;;;4926458;28;20657;-96
2021/10/16 09:34:49;;;;;;;12.90;11.90;;;11.90;99.90;;;;;;4927916;29;20640;-96
2021/10/16 10:08:52;;;;;;;17.77;16.13;;;13.50;99.90;;;;;;4899874;29;21059;-96
2021/10/16 10:11:30;;;;;;;23.63;17.53;;;13.80;99.90;;;;;;4869131;29;20650;-96
2021/10/16 10:14:00;;;;;;;16.00;14.50;;;13.60;99.90;;;;;;4921141;29;20650;-96
2021/10/16 10:16:53;;;;;;;19.33;16.27;;;13.80;99.90;;;;;;4922163;29;20628;-96
2021/10/16 10:19:41;;;;;;;16.77;15.27;;;14.10;99.90;;;;;;4901145;29;20648;-96
2021/10/16 10:22:20;;;;;;;16.10;14.70;;;14.10;99.90;;;;;;4889257;29;20670;-96
2021/10/16 10:24:56;;;;;;;15.87;14.30;;;14.40;99.90;;;;;;4877161;29;20672;-96
2021/10/16 10:27:47;;;;;;;19.00;12.80;;;14.50;99.90;;;;;;4887683;29;20697;-96
2021/10/16 10:30:39;;;;;;;15.47;12.70;;;14.60;99.90;;;;;;4877659;29;20633;-96
2021/10/16 10:36:23;;;;;;;14.30;12.80;;;15.00;99.90;;;;;;4876429;29;20615;-96
2021/10/16 10:38:53;;;;;;;15.23;13.43;;;14.90;99.90;;;;;;4877956;29;20630;-96
2021/10/16 10:47:25;;;;;;;14.73;12.10;;;15.20;99.90;;;;;;4890758;29;20637;-96
2021/10/16 10:53:04;;;;;;;16.50;15.20;;;15.00;99.90;;;;;;4873031;29;20616;-96
2021/10/16 10:55:52;;;;;;;14.00;12.57;;;14.60;99.90;;;;;;4889169;29;20680;-96
2021/10/16 10:59:21;;;;;;;15.40;14.00;;;14.40;99.90;;;;;;4867016;29;20661;-96
2021/10/16 11:02:09;;;;;;;14.70;12.67;;;14.40;99.90;;;;;;4886938;29;20671;-96
2021/10/16 11:04:46;;;;;;;14.53;13.23;;;14.50;99.90;;;;;;4887141;29;20632;-96
2021/10/16 11:07:16;;;;;;;14.23;12.50;;;14.50;99.90;;;;;;4888308;29;20650;-96
2021/10/16 11:09:53;;;;;;;16.07;14.60;;;14.60;99.90;;;;;;4890057;29;20638;-96
2021/10/16 11:12:29;;;;;;;14.83;13.43;;;14.60;99.90;;;;;;4892384;29;20680;-96
2021/10/16 11:15:12;;;;;;;14.57;13.07;;;14.60;99.90;;;;;;4897450;29;20673;-96
2021/10/16 11:17:45;;;;;;;14.83;13.43;;;14.40;99.90;;;;;;4883827;29;20637;-96
2021/10/16 11:20:24;;;;;;;13.90;12.40;;;14.70;99.90;;;;;;4894165;29;20641;-96
2021/10/16 11:25:40;;;;;;;13.63;12.30;;;15.60;99.90;;;;;;4886765;29;20699;-96
2021/10/16 11:28:13;;;;;;;11.73;10.60;;;16.40;99.90;;;;;;4897998;29;20625;-95
2021/10/16 11:30:42;;;;;;;11.63;10.57;;;16.40;99.90;;;;;;4898274;29;20626;-95
2021/10/16 11:33:14;;;;;;;12.43;11.23;;;17.20;99.90;;;;;;4892742;29;20646;-95
2021/10/16 11:35:44;;;;;;;12.10;10.90;;;17.30;99.90;;;;;;4886724;29;20653;-96
2021/10/16 11:38:14;;;;;;;11.60;10.07;;;17.10;99.90;;;;;;4882073;29;21210;-96
2021/10/16 11:40:41;;;;;;;11.43;10.27;;;16.70;99.90;;;;;;4882778;29;20673;-96
2021/10/16 11:45:58;;;;;;;9.70;8.90;;;16.60;99.90;;;;;;4877271;29;20645;-96
2021/10/16 11:48:36;;;;;;;11.00;10.10;;;17.50;99.90;;;;;;4898243;29;21047;-96
2021/10/16 11:51:11;;;;;;;12.00;10.10;;;18.00;99.90;;;;;;4892092;29;20648;-96
2021/10/16 11:53:40;;;;;;;10.37;9.57;;;18.40;99.90;;;;;;4898707;29;20629;-96
2021/10/16 11:56:12;;;;;;;10.50;9.70;;;19.20;99.90;;;;;;4903839;29;20670;-96
2021/10/16 11:58:43;;;;;;;10.43;9.63;;;19.10;99.90;;;;;;4906179;29;20662;-96
2021/10/16 12:01:13;;;;;;;11.03;10.03;;;19.20;99.90;;;;;;4907495;29;20664;-96
2021/10/16 12:03:44;;;;;;;9.97;9.20;;;20.00;99.90;;;;;;4905592;29;20736;-96
2021/10/16 12:06:13;;;;;;;10.90;10.00;;;20.20;99.90;;;;;;4881908;29;20680;-94
2021/10/16 12:11:30;;;;;;;11.43;10.63;;;20.90;98.00;;;;;;4901254;29;20665;-96
2021/10/16 12:14:01;;;;;;;12.53;11.50;;;20.30;99.20;;;;;;4890750;29;20661;-96
2021/10/16 12:16:50;;;;;;;12.00;10.90;;;20.20;99.90;;;;;;4885424;29;20669;-96
2021/10/16 12:19:23;;;;;;;11.17;10.20;;;21.30;97.70;;;;;;4892376;29;20629;-96
2021/10/16 12:21:55;;;;;;;9.33;8.73;;;22.00;94.70;;;;;;4885144;29;20677;-96
2021/10/16 12:24:30;;;;;;;11.90;11.00;;;22.10;93.20;;;;;;4893768;29;20650;-96
2021/10/16 12:27:05;;;;;;;10.60;9.80;;;21.60;94.70;;;;;;4885053;29;20657;-96
2021/10/16 12:29:46;;;;;;;11.67;10.67;;;20.20;98.40;;;;;;4890149;29;20652;-96
2021/10/16 12:32:23;;;;;;;10.40;9.40;;;19.90;99.90;;;;;;4896003;29;20643;-95
2021/10/16 12:34:58;;;;;;;10.10;9.40;;;20.00;99.40;;;;;;4899518;29;20673;-96
2021/10/16 12:37:31;;;;;;;9.23;8.53;;;20.60;98.00;;;;;;4892909;29;20792;-96
2021/10/16 12:40:12;;;;;;;9.60;8.90;;;20.70;97.50;;;;;;4883968;29;20645;-95
2021/10/16 12:42:53;;;;;;;11.17;10.27;;;20.90;97.10;;;;;;4886377;29;20665;-96
2021/10/16 12:45:39;;;;;;;10.23;9.40;;;21.60;95.50;;;;;;4893500;29;20638;-96
2021/10/16 12:48:40;;;;;;;8.90;8.30;;;20.70;96.10;;;;;;4883352;29;20737;-96
2021/10/16 12:51:49;;;;;;;8.50;7.83;;;19.90;97.70;;;;;;4892389;29;20646;-96
2021/10/16 13:00:06;;;;;;;8.37;7.57;;;18.20;99.90;;;;;;4904833;29;20638;-96
2021/10/16 13:02:34;;;;;;;7.93;7.33;;;17.80;99.90;;;;;;4901094;29;20673;-96
2021/10/16 13:05:17;;;;;;;7.80;7.00;;;18.00;99.90;;;;;;4892956;29;20665;-96
2021/10/16 13:10:52;;;;;;;8.50;7.80;;;17.80;99.90;;;;;;4895722;29;20626;-95
2021/10/16 13:13:22;;;;;;;7.90;7.27;;;17.60;99.90;;;;;;4883316;29;21276;-96
2021/10/16 13:15:50;;;;;;;8.43;7.70;;;17.30;99.90;;;;;;4887419;29;20697;-95
2021/10/16 13:18:17;;;;;;;9.47;8.63;;;17.00;99.90;;;;;;4898547;29;20617;-95
2021/10/16 13:20:46;;;;;;;7.47;6.87;;;16.90;99.90;;;;;;4904031;29;20653;-95
2021/10/16 13:23:19;;;;;;;9.00;8.20;;;16.90;99.90;;;;;;4898210;29;20742;-94
2021/10/16 13:25:46;;;;;;;8.83;7.93;;;16.80;99.90;;;;;;4897085;29;20732;-94
2021/10/16 13:28:13;;;;;;;7.37;6.77;;;17.20;99.90;;;;;;4901081;29;20626;-94
2021/10/16 13:30:40;;;;;;;6.90;6.30;;;17.50;99.90;;;;;;4905343;29;20645;-94
2021/10/16 13:33:07;;;;;;;6.10;5.60;;;17.30;99.90;;;;;;4891998;29;20619;-94
2021/10/16 13:35:34;;;;;;;6.83;6.23;;;17.40;99.90;;;;;;4884568;29;20671;-93
2021/10/16 13:38:01;;;;;;;7.53;6.83;;;17.90;99.90;;;;;;4886124;29;20661;-94
2021/10/16 13:40:36;;;;;;;6.90;6.30;;;17.40;99.90;;;;;;4879392;29;20717;-93
2021/10/16 13:43:03;;;;;;;7.33;6.63;;;18.00;99.90;;;;;;4878963;29;20657;-93
2021/10/16 13:45:31;;;;;;;7.07;6.47;;;19.00;99.90;;;;;;4873026;29;20649;-94
2021/10/16 13:47:58;;;;;;;6.67;6.07;;;19.90;99.90;;;;;;4867365;29;20633;-92
2021/10/16 13:50:27;;;;;;;8.63;6.27;;;19.40;99.20;;;;;;4887550;29;20618;-94
2021/10/16 13:52:56;;;;;;;6.70;6.10;;;18.60;99.90;;;;;;4887720;29;20629;-94
2021/10/16 13:55:24;;;;;;;7.83;7.23;;;17.70;99.90;;;;;;4885236;29;20725;-94
2021/10/16 13:58:05;;;;;;;8.13;7.40;;;17.40;99.90;;;;;;4886422;29;20637;-94
2021/10/16 14:00:32;;;;;;;8.10;7.00;;;17.10;99.90;;;;;;4889066;29;20648;-94
2021/10/16 14:02:59;;;;;;;9.27;8.57;;;17.20;99.90;;;;;;4878706;29;20661;-94
2021/10/16 14:05:26;;;;;;;8.90;8.10;;;18.60;99.90;;;;;;4885879;29;20677;-93
2021/10/16 14:07:55;;;;;;;10.07;9.07;;;19.50;99.90;;;;;;4879023;29;20672;-93
2021/10/16 14:10:23;;;;;;;10.57;9.57;;;20.60;99.90;;;;;;4879328;29;20643;-94
2021/10/16 14:12:50;;;;;;;8.73;8.10;;;20.90;97.30;;;;;;4887471;29;20630;-93
2021/10/16 14:15:18;;;;;;;8.53;7.93;;;21.30;96.20;;;;;;4901360;29;20653;-93
2021/10/16 14:17:47;;;;;;;8.30;7.70;;;21.40;95.40;;;;;;4906426;29;20633;-94
2021/10/16 14:20:16;;;;;;;7.93;7.33;;;20.90;96.30;;;;;;4886692;29;20714;-93
2021/10/16 14:22:53;;;;;;;8.00;7.40;;;21.50;95.20;;;;;;4885847;29;20697;-93
2021/10/16 14:25:20;;;;;;;10.10;9.30;;;22.00;94.40;;;;;;4884756;29;20694;-94
2021/10/16 14:27:49;;;;;;;8.97;8.27;;;22.10;93.20;;;;;;4873683;29;20642;-94
2021/10/16 14:30:19;;;;;;;8.57;7.87;;;21.70;92.50;;;;;;4884873;29;20642;-94
2021/10/16 14:32:46;;;;;;;9.27;8.47;;;22.00;93.20;;;;;;4881265;29;20652;-94
2021/10/16 14:35:16;;;;;;;9.70;9.00;;;22.10;93.20;;;;;;4876256;29;21382;-94
2021/10/16 14:37:45;;;;;;;8.30;7.70;;;22.20;91.90;;;;;;4878452;29;20643;-94
2021/10/16 14:40:15;;;;;;;8.97;8.30;;;22.00;92.80;;;;;;4878988;29;20637;-94
2021/10/16 14:42:42;;;;;;;8.43;7.70;;;22.40;91.50;;;;;;4874707;29;20669;-94
2021/10/16 14:45:11;;;;;;;9.63;8.93;;;21.10;94.10;;;;;;4880258;29;21122;-95
2021/10/16 14:47:40;;;;;;;10.70;9.80;;;19.90;97.50;;;;;;4884056;29;20637;-95
2021/10/16 14:50:09;;;;;;;9.93;9.07;;;18.90;99.90;;;;;;4889493;29;20714;-95
2021/10/16 14:52:37;;;;;;;9.53;8.63;;;18.20;99.90;;;;;;4877980;29;20638;-95
2021/10/16 14:55:08;;;;;;;10.10;9.30;;;18.60;99.90;;;;;;4865994;29;20656;-95
2021/10/16 14:57:36;;;;;;;9.97;9.17;;;19.70;99.90;;;;;;4862160;29;20659;-94
2021/10/16 15:00:10;;;;;;;9.90;9.10;;;20.30;98.70;;;;;;4884634;29;20641;-94
2021/10/16 15:02:40;;;;;;;9.30;8.50;;;20.30;98.90;;;;;;4876411;29;20673;-94
2021/10/16 15:05:07;;;;;;;9.20;8.20;;;20.90;96.80;;;;;;4877942;29;20680;-94
2021/10/16 15:07:38;;;;;;;8.77;8.07;;;21.00;96.60;;;;;;4869616;29;20646;-94
2021/10/16 15:10:08;;;;;;;7.63;7.03;;;21.50;95.90;;;;;;4882039;29;20694;-94
2021/10/16 15:12:38;;;;;;;8.23;7.63;;;21.10;96.20;;;;;;4875234;29;20717;-94
2021/10/16 15:15:07;;;;;;;8.40;7.60;;;21.10;95.00;;;;;;4879660;29;20647;-94
2021/10/16 15:17:36;;;;;;;7.60;7.00;;;21.00;96.00;;;;;;4891953;29;20634;-94
2021/10/16 15:20:15;;;;;;;7.43;6.73;;;19.70;98.70;;;;;;4880804;29;20626;-94
2021/10/16 15:22:42;;;;;;;8.23;7.43;;;18.80;99.90;;;;;;4882318;29;20670;-95
2021/10/16 15:25:09;;;;;;;7.57;6.87;;;18.40;99.90;;;;;;4883113;29;20661;-95
2021/10/16 15:27:37;;;;;;;8.03;7.33;;;19.30;99.90;;;;;;4879493;29;21243;-94
2021/10/16 15:30:10;;;;;;;10.20;9.00;;;19.90;99.90;;;;;;4870910;29;20641;-94
2021/10/16 15:32:36;;;;;;;7.37;6.77;;;20.70;97.70;;;;;;4867779;29;20749;-94
2021/10/16 15:35:05;;;;;;;8.27;7.57;;;21.20;95.50;;;;;;4886449;29;21019;-94
2021/10/16 15:37:33;;;;;;;6.70;5.80;;;21.20;96.90;;;;;;4888191;29;20642;-93
2021/10/16 15:40:00;;;;;;;8.63;7.83;;;21.00;97.80;;;;;;4892996;29;20639;-94
2021/10/16 15:42:27;;;;;;;9.60;8.80;;;20.60;98.80;;;;;;4892661;29;20684;-94
2021/10/16 15:44:59;;;;;;;10.47;9.60;;;20.60;98.70;;;;;;4882949;29;20683;-94
2021/10/16 15:47:27;;;;;;;10.83;10.00;;;20.30;99.90;;;;;;4891005;29;20726;-94
2021/10/16 15:49:58;;;;;;;10.67;9.80;;;20.10;99.90;;;;;;4890968;29;20727;-95
2021/10/16 15:52:27;;;;;;;10.53;9.73;;;19.90;99.90;;;;;;4885873;29;20634;-96
2021/10/16 15:55:10;;;;;;;11.17;10.27;;;18.40;99.90;;;;;;4878776;29;20768;-95
2021/10/16 15:57:37;;;;;;;11.17;10.17;;;17.60;99.90;;;;;;4884743;29;21208;-96
2021/10/16 16:00:10;;;;;;;10.43;9.50;;;16.90;99.90;;;;;;4887216;29;20648;-95
2021/10/16 16:02:38;;;;;;;12.40;11.20;;;16.30;99.90;;;;;;4888567;29;20660;-94
2021/10/16 16:05:06;;;;;;;9.90;8.83;;;15.90;99.90;;;;;;4887691;29;21220;-92
2021/10/16 16:07:35;;;;;;;10.83;9.73;;;15.60;99.90;;;;;;4928252;23;20810;-95
2021/10/16 16:10:24;;;;;;;10.50;9.60;;;15.30;99.90;;;;;;5083478;23;20671;-96
2021/10/16 16:12:57;;;;;;;12.00;9.90;;;15.00;99.90;;;;;;5031865;23;20684;-94
2021/10/16 16:34:36;;;;;;;8.63;7.90;;;13.10;99.90;;;;;;5500319;23;20683;-96
2021/10/16 19:52:09;;;;;;;19.97;18.27;;;7.90;99.90;;;;;;1510639;23;20953;-95
2021/10/16 19:54:40;;;;;;;22.33;20.63;;;7.90;99.90;;;;;;4930514;29;20636;-96
2021/10/16 20:08:09;;;;;;;20.70;19.07;;;7.80;99.90;;;;;;5680409;23;20688;-96
2021/10/16 20:33:54;;;;;;;22.77;20.77;;;7.50;99.90;;;;;;4902212;29;21030;-95
2021/10/16 20:36:23;;;;;;;21.87;20.07;;;7.50;99.90;;;;;;4908151;29;20652;-95
2021/10/16 20:38:52;;;;;;;21.67;19.97;;;7.50;99.90;;;;;;4890889;29;20746;-96
2021/10/16 20:41:22;;;;;;;22.57;20.57;;;7.40;99.90;;;;;;4894194;29;20681;-95
2021/10/16 20:43:51;;;;;;;24.53;22.50;;;7.30;99.90;;;;;;4873450;29;20705;-95
2021/10/16 20:46:21;;;;;;;24.67;22.70;;;7.30;99.90;;;;;;4894029;29;20691;-94
2021/10/16 20:48:51;;;;;;;24.63;22.70;;;7.20;99.90;;;;;;4883872;29;20642;-95
2021/10/16 20:51:21;;;;;;;24.90;22.80;;;7.20;99.90;;;;;;4888269;29;21221;-95
2021/10/16 20:53:51;;;;;;;25.97;23.80;;;7.30;99.90;;;;;;4893711;29;20714;-95
2021/10/16 20:56:18;;;;;;;24.50;22.47;;;7.30;99.90;;;;;;4890680;29;20635;-95
2021/10/16 20:58:53;;;;;;;26.10;24.00;;;7.20;99.90;;;;;;4900347;29;20617;-96
2021/10/16 21:01:28;;;;;;;25.80;23.80;;;7.20;99.90;;;;;;4898084;29;20678;-95
2021/10/16 21:04:02;;;;;;;24.83;22.80;;;7.20;99.90;;;;;;4893235;29;20661;-96
2021/10/16 21:06:31;;;;;;;24.97;22.97;;;7.20;99.90;;;;;;4899229;29;20641;-96
2021/10/16 21:09:03;;;;;;;24.33;22.43;;;7.20;99.90;;;;;;4889760;29;20667;-95
2021/10/16 21:11:32;;;;;;;24.17;22.37;;;7.10;99.90;;;;;;4884663;29;20717;-95
2021/10/16 21:14:01;;;;;;;25.93;23.63;;;7.00;99.90;;;;;;4885423;29;20746;-95
2021/10/16 21:16:30;;;;;;;26.53;24.07;;;7.00;99.90;;;;;;4877567;29;20654;-95
2021/10/16 21:19:05;;;;;;;25.00;23.00;;;7.00;99.90;;;;;;4887704;29;20647;-95
2021/10/16 21:24:30;;;;;;;25.03;22.73;;;7.00;99.90;;;;;;4896431;29;20696;-96
2021/10/16 21:26:58;;;;;;;24.93;23.00;;;7.00;99.90;;;;;;4900377;29;20636;-95
2021/10/16 21:30:08;;;;;;;25.40;23.40;;;7.00;99.90;;;;;;4891685;29;20673;-96
2021/10/16 21:32:42;;;;;;;26.67;24.27;;;7.00;99.90;;;;;;4893934;29;20671;-96
2021/10/16 21:35:36;;;;;;;25.97;23.60;;;6.90;99.90;;;;;;4903843;29;20631;-96
2021/10/16 21:38:09;;;;;;;25.33;23.17;;;6.80;99.90;;;;;;4907165;29;20770;-96
2021/10/16 21:40:40;;;;;;;24.20;22.30;;;6.80;99.90;;;;;;4893403;29;20643;-96
2021/10/16 21:43:10;;;;;;;26.73;24.50;;;6.80;99.90;;;;;;4900856;29;20698;-95
2021/10/16 21:45:39;;;;;;;25.33;23.13;;;6.70;99.90;;;;;;4877208;29;20651;-95
2021/10/16 21:48:07;;;;;;;24.13;22.13;;;6.70;99.90;;;;;;4884157;29;20668;-95
2021/10/16 21:50:38;;;;;;;26.43;24.37;;;6.70;99.90;;;;;;4877165;29;20646;-95
2021/10/16 21:53:11;;;;;;;24.77;22.60;;;6.70;99.90;;;;;;4879305;29;20714;-95
2021/10/16 21:55:42;;;;;;;25.07;23.07;;;6.70;99.90;;;;;;4875728;29;20653;-95
2021/10/16 21:58:10;;;;;;;25.00;23.00;;;6.70;99.90;;;;;;4875310;29;20643;-95
2021/10/16 22:01:03;;;;;;;25.20;23.03;;;6.70;99.90;;;;;;4880365;29;21198;-96
2021/10/16 22:03:40;;;;;;;24.70;22.70;;;6.60;99.90;;;;;;4883315;29;21045;-96
2021/10/16 22:06:25;;;;;;;24.83;22.83;;;6.50;99.90;;;;;;4882648;29;20664;-95
2021/10/16 22:08:53;;;;;;;24.07;22.07;;;6.50;99.90;;;;;;4870463;29;20639;-96
2021/10/16 22:11:22;;;;;;;27.37;25.10;;;6.50;99.90;;;;;;4886064;29;20748;-96
2021/10/16 22:13:50;;;;;;;27.70;25.30;;;6.50;99.90;;;;;;4861722;29;20625;-95
2021/10/16 22:16:18;;;;;;;26.27;23.97;;;6.50;99.90;;;;;;4899347;29;20615;-95
2021/10/16 22:18:47;;;;;;;26.90;24.80;;;6.40;99.90;;;;;;4887341;29;20740;-96
2021/10/16 22:21:17;;;;;;;25.40;23.30;;;6.40;99.90;;;;;;4880084;29;20676;-96
2021/10/16 22:23:45;;;;;;;26.30;24.13;;;6.40;99.90;;;;;;4882519;29;20673;-96
2021/10/16 22:26:14;;;;;;;27.37;25.27;;;6.40;99.90;;;;;;4885677;29;20674;-96
2021/10/16 22:28:41;;;;;;;30.37;27.83;;;6.30;99.90;;;;;;4876668;29;20643;-96
2021/10/16 22:31:10;;;;;;;29.63;27.03;;;6.40;99.90;;;;;;4873360;29;20685;-95
2021/10/16 22:33:37;;;;;;;28.60;26.30;;;6.30;99.90;;;;;;4872535;29;20681;-95
2021/10/16 22:36:05;;;;;;;26.47;24.27;;;6.30;99.90;;;;;;4887907;29;20651;-96
2021/10/16 22:38:33;;;;;;;25.10;23.00;;;6.20;99.90;;;;;;4904736;29;20627;-96
2021/10/16 22:41:00;;;;;;;26.80;24.50;;;6.30;99.90;;;;;;4893372;29;20674;-96
2021/10/16 22:43:27;;;;;;;26.80;24.70;;;6.30;99.90;;;;;;4884538;29;20773;-95
2021/10/16 22:45:55;;;;;;;24.70;22.90;;;6.30;99.90;;;;;;4882819;29;20670;-94
2021/10/16 22:48:24;;;;;;;26.00;23.70;;;6.30;99.90;;;;;;4879390;29;20653;-95
2021/10/16 22:50:54;;;;;;;24.20;22.20;;;6.20;99.90;;;;;;4883011;29;20669;-95
2021/10/16 22:53:22;;;;;;;24.87;22.83;;;6.10;99.90;;;;;;4880754;29;20670;-95
2021/10/16 22:55:57;;;;;;;24.60;22.53;;;6.10;99.90;;;;;;4872533;29;20658;-95
2021/10/16 23:01:05;;;;;;;23.17;21.37;;;6.10;99.90;;;;;;4879064;29;20704;-94
2021/10/16 23:03:32;;;;;;;24.97;22.60;;;6.20;99.90;;;;;;4874398;29;20673;-94
2021/10/16 23:06:00;;;;;;;25.00;23.10;;;6.10;99.90;;;;;;4870530;29;20668;-94
2021/10/16 23:08:28;;;;;;;25.40;23.20;;;6.20;99.90;;;;;;4874190;29;20645;-95
2021/10/16 23:10:59;;;;;;;25.47;23.50;;;6.10;99.90;;;;;;4873312;29;20765;-95
2021/10/16 23:13:26;;;;;;;23.23;21.43;;;6.20;99.90;;;;;;4886128;29;20633;-96
2021/10/16 23:15:53;;;;;;;24.00;22.10;;;6.10;99.90;;;;;;4878373;29;20669;-95
2021/10/16 23:18:20;;;;;;;23.57;21.60;;;6.10;99.90;;;;;;4879830;29;20968;-95
2021/10/16 23:20:51;;;;;;;27.07;24.67;;;6.00;99.90;;;;;;4894390;29;20677;-95
2021/10/16 23:23:18;;;;;;;26.00;23.87;;;6.10;99.90;;;;;;4891578;29;20637;-96
2021/10/16 23:25:45;;;;;;;24.10;22.10;;;6.00;99.90;;;;;;4884200;29;20646;-96
2021/10/16 23:28:13;;;;;;;25.80;23.70;;;5.90;99.90;;;;;;4890831;29;20999;-95
2021/10/16 23:30:43;;;;;;;27.13;24.97;;;6.00;99.90;;;;;;4898977;29;20688;-95
2021/10/16 23:33:11;;;;;;;25.23;23.13;;;6.00;99.90;;;;;;4873386;29;20698;-96
2021/10/16 23:35:40;;;;;;;25.97;23.97;;;5.90;99.90;;;;;;4880046;29;21180;-95
2021/10/16 23:38:11;;;;;;;25.83;23.63;;;5.90;99.90;;;;;;4876208;29;20672;-95
2021/10/16 23:40:38;;;;;;;26.23;23.93;;;5.90;99.90;;;;;;4885462;29;20737;-95
2021/10/16 23:43:09;;;;;;;25.30;23.30;;;6.00;99.90;;;;;;4897026;29;20720;-95
2021/10/16 23:48:20;;;;;;;24.70;22.53;;;6.00;99.90;;;;;;4878591;29;20633;-95
2021/10/16 23:50:49;;;;;;;25.73;23.63;;;6.00;99.90;;;;;;4881460;29;20662;-96
2021/10/16 23:53:15;;;;;;;26.13;24.07;;;6.00;99.90;;;;;;4881110;29;20633;-96
2021/10/16 23:55:43;;;;;;;24.60;22.60;;;6.10;99.90;;;;;;4874560;29;20625;-96
2021/10/16 23:58:13;;;;;;;26.07;23.90;;;6.00;99.90;;;;;;4872709;29;20640;-96
